createdAt,value
2018-05-23T00:01:33.531Z,87.65
2018-05-23T00:04:01.943Z,87.50
2018-05-23T00:06:30.343Z,87.56
2018-05-23T00:08:58.746Z,87.09
2018-05-23T00:11:27.136Z,87.50
2018-05-23T00:13:55.548Z,87.36
2018-05-23T00:16:23.944Z,86.44
2018-05-23T00:18:52.355Z,86.69
2018-05-23T00:21:20.747Z,86.89
2018-05-23T00:23:49.164Z,86.56
2018-05-23T00:26:17.552Z,86.38
2018-05-23T00:28:45.958Z,86.00
2018-05-23T00:31:14.674Z,86.49
2018-05-23T00:33:43.527Z,86.49
2018-05-23T00:36:12.175Z,86.74
2018-05-23T00:38:41.504Z,86.38
2018-05-23T00:41:10.631Z,86.50
2018-05-23T00:43:39.159Z,86.99
2018-05-23T00:46:08.455Z,86.29
2018-05-23T00:48:37.166Z,86.26
2018-05-23T00:51:06.663Z,86.36
2018-05-23T00:53:35.551Z,86.59
2018-05-23T00:56:03.943Z,86.57
2018-05-23T00:58:32.705Z,86.57
2018-05-23T01:01:01.020Z,86.26
2018-05-23T01:03:29.427Z,85.93
2018-05-23T01:05:57.837Z,86.26
2018-05-23T01:08:26.211Z,86.77
2018-05-23T01:10:54.624Z,86.84
2018-05-23T01:13:23.017Z,86.34
2018-05-23T01:15:51.427Z,85.65
2018-05-23T01:18:19.811Z,85.96
2018-05-23T01:20:48.220Z,85.72
2018-05-23T01:23:16.610Z,85.41
2018-05-23T01:25:45.027Z,85.50
2018-05-23T01:28:13.407Z,86.20
2018-05-23T01:30:41.815Z,86.20
2018-05-23T01:33:10.478Z,86.44
2018-05-23T01:35:39.235Z,86.05
2018-05-23T01:38:07.803Z,86.54
2018-05-23T01:40:36.216Z,86.30
2018-05-23T01:43:04.599Z,86.27
2018-05-23T01:45:33.014Z,86.66
2018-05-23T01:48:01.405Z,87.17
2018-05-23T01:50:29.815Z,87.81
2018-05-23T01:52:58.213Z,88.36
2018-05-23T01:55:26.617Z,88.56
2018-05-23T01:57:55.011Z,87.35
2018-05-23T02:00:23.425Z,87.50
2018-05-23T02:02:51.810Z,87.35
2018-05-23T02:05:20.223Z,87.37
2018-05-23T02:07:48.624Z,86.56
2018-05-23T02:10:17.039Z,85.74
2018-05-23T02:12:45.432Z,86.03
2018-05-23T02:15:13.843Z,86.20
2018-05-23T02:17:42.235Z,86.03
2018-05-23T02:20:10.643Z,86.35
2018-05-23T02:22:39.040Z,86.13
2018-05-23T02:25:07.456Z,86.00
2018-05-23T02:27:35.843Z,86.10
2018-05-23T02:30:04.256Z,86.22
2018-05-23T02:32:32.647Z,86.87
2018-05-23T02:35:01.190Z,86.84
2018-05-23T02:37:30.159Z,86.81
2018-05-23T02:39:58.827Z,86.59
2018-05-23T02:42:27.313Z,86.97
2018-05-23T02:44:55.803Z,87.78
2018-05-23T02:47:24.307Z,87.48
2018-05-23T02:49:52.755Z,87.59
2018-05-23T02:52:21.151Z,87.19
2018-05-23T02:54:49.564Z,86.15
2018-05-23T02:57:17.957Z,86.30
2018-05-23T02:59:46.367Z,86.20
2018-05-23T03:02:14.746Z,85.38
2018-05-23T03:04:43.156Z,85.68
2018-05-23T03:07:11.538Z,85.92
2018-05-23T03:09:39.956Z,85.86
2018-05-23T03:12:08.564Z,86.83
2018-05-23T03:14:36.962Z,87.03
2018-05-23T03:17:05.359Z,87.37
2018-05-23T03:19:33.780Z,87.70
2018-05-23T03:22:02.185Z,87.92
2018-05-23T03:24:30.594Z,88.15
2018-05-23T03:26:58.983Z,88.70
2018-05-23T03:29:27.399Z,89.09
2018-05-23T03:31:55.788Z,89.02
2018-05-23T03:34:24.203Z,88.09
2018-05-23T03:36:52.600Z,88.64
2018-05-23T03:39:21.035Z,88.79
2018-05-23T03:41:49.427Z,88.48
2018-05-23T03:44:17.840Z,88.46
2018-05-23T03:46:46.319Z,88.47
2018-05-23T03:49:15.222Z,88.49
2018-05-23T03:51:43.915Z,88.56
2018-05-23T03:54:12.668Z,87.89
2018-05-23T03:56:41.346Z,87.65
2018-05-23T03:59:09.759Z,87.73
2018-05-23T04:04:52.683Z,87.86
2018-05-23T04:07:33.147Z,87.56
2018-05-23T04:10:01.555Z,87.34
2018-05-23T04:12:31.583Z,87.56
2018-05-23T04:15:00.043Z,87.84
2018-05-23T04:17:29.023Z,87.34
2018-05-23T04:19:57.494Z,87.32
2018-05-23T04:22:26.440Z,87.05
2018-05-23T04:24:54.930Z,86.82
2018-05-23T04:27:23.495Z,86.44
2018-05-23T04:29:52.644Z,86.05
2018-05-23T04:32:21.437Z,85.80
2018-05-23T04:34:51.299Z,85.46
2018-05-23T04:37:19.839Z,85.66
2018-05-23T04:39:48.253Z,85.76
2018-05-23T04:42:16.751Z,84.80
2018-05-23T04:44:45.163Z,84.98
2018-05-23T04:47:14.455Z,85.03
2018-05-23T04:49:42.869Z,84.46
2018-05-23T04:52:11.294Z,84.66
2018-05-23T04:54:39.695Z,84.39
2018-05-23T04:57:08.083Z,84.64
2018-05-23T04:59:36.786Z,84.18
2018-05-23T05:02:05.279Z,83.28
2018-05-23T05:04:33.692Z,83.71
2018-05-23T05:07:02.136Z,83.57
2018-05-23T05:09:30.611Z,83.66
2018-05-23T05:11:59.209Z,82.11
2018-05-23T05:14:28.507Z,80.81
2018-05-23T05:16:57.186Z,80.23
2018-05-23T05:19:25.596Z,79.84
2018-05-23T05:21:54.668Z,79.15
2018-05-23T05:24:23.056Z,77.67
2018-05-23T05:26:51.626Z,78.09
2018-05-23T05:29:20.578Z,77.65
2018-05-23T05:31:49.973Z,78.04
2018-05-23T05:34:18.743Z,77.89
2018-05-23T05:36:47.895Z,77.57
2018-05-23T05:39:16.283Z,76.91
2018-05-23T05:41:45.076Z,76.54
2018-05-23T05:44:13.472Z,77.30
2018-05-23T05:46:42.051Z,75.05
2018-05-23T05:49:10.445Z,74.56
2018-05-23T05:51:38.846Z,75.02
2018-05-23T05:54:07.226Z,75.17
2018-05-23T05:56:35.635Z,75.48
2018-05-23T05:59:04.024Z,74.55
2018-05-23T06:01:32.428Z,75.04
2018-05-23T06:04:00.824Z,73.31
2018-05-23T06:06:29.239Z,72.46
2018-05-23T06:08:57.627Z,72.95
2018-05-23T06:11:26.032Z,71.30
2018-05-23T06:13:54.425Z,72.70
2018-05-23T06:16:22.831Z,72.48
2018-05-23T06:18:51.223Z,70.92
2018-05-23T06:21:19.627Z,71.63
2018-05-23T06:23:48.021Z,70.97
2018-05-23T06:26:16.420Z,71.58
2018-05-23T06:28:44.800Z,72.36
2018-05-23T06:31:13.198Z,72.52
2018-05-23T06:33:41.590Z,74.32
2018-05-23T06:36:09.999Z,72.72
2018-05-23T06:38:38.660Z,72.92
2018-05-23T06:41:07.684Z,73.76
2018-05-23T06:43:36.854Z,73.92
2018-05-23T06:46:05.180Z,72.55
2018-05-23T06:48:33.568Z,72.75
2018-05-23T06:51:02.788Z,73.14
2018-05-23T06:53:32.031Z,74.18
2018-05-23T06:56:00.797Z,74.51
2018-05-23T06:58:29.815Z,73.24
2018-05-23T07:00:58.456Z,71.80
2018-05-23T07:03:27.411Z,71.29
2018-05-23T07:05:56.493Z,71.27
2018-05-23T07:08:25.418Z,69.76
2018-05-23T07:10:54.349Z,70.06
2018-05-23T07:13:23.358Z,70.89
2018-05-23T07:15:52.020Z,71.39
2018-05-23T07:18:20.692Z,70.66
2018-05-23T07:20:49.472Z,70.79
2018-05-23T07:23:18.527Z,70.01
2018-05-23T07:25:47.515Z,67.04
2018-05-23T07:28:16.160Z,66.57
2018-05-23T07:30:44.933Z,67.47
2018-05-23T07:33:13.702Z,65.71
2018-05-23T07:35:42.407Z,67.83
2018-05-23T07:38:11.311Z,65.77
2018-05-23T07:40:39.799Z,65.96
2018-05-23T07:43:09.102Z,65.45
2018-05-23T07:45:37.779Z,67.06
2018-05-23T07:48:06.484Z,67.50
2018-05-23T07:50:35.355Z,66.20
2018-05-23T07:53:03.743Z,67.40
2018-05-23T07:55:32.263Z,65.54
2018-05-23T07:58:00.648Z,67.39
2018-05-23T08:00:29.550Z,66.91
2018-05-23T08:02:57.942Z,68.56
2018-05-23T08:05:26.756Z,68.50
2018-05-23T08:07:55.547Z,68.22
2018-05-23T08:10:24.569Z,68.13
2018-05-23T08:12:53.235Z,66.17
2018-05-23T08:15:21.642Z,65.47
2018-05-23T08:17:50.794Z,65.83
2018-05-23T08:20:19.423Z,63.85
2018-05-23T08:22:48.175Z,63.66
2018-05-23T08:25:16.572Z,62.06
2018-05-23T08:27:44.981Z,62.17
2018-05-23T08:30:13.376Z,60.13
2018-05-23T08:32:41.783Z,56.70
2018-05-23T08:35:10.179Z,59.94
2018-05-23T08:37:38.587Z,56.58
2018-05-23T08:40:06.979Z,54.30
2018-05-23T08:42:35.951Z,55.98
2018-05-23T08:45:04.968Z,55.33
2018-05-23T08:47:33.528Z,54.13
2018-05-23T08:50:02.768Z,53.05
2018-05-23T08:52:31.729Z,52.24
2018-05-23T08:55:00.620Z,51.06
2018-05-23T08:57:29.392Z,54.83
2018-05-23T08:59:57.857Z,57.43
2018-05-23T09:02:26.520Z,57.85
2018-05-23T09:04:55.765Z,57.86
2018-05-23T09:07:24.946Z,57.49
2018-05-23T09:09:53.919Z,56.46
2018-05-23T09:12:22.507Z,56.92
2018-05-23T09:14:50.895Z,58.98
2018-05-23T09:17:20.069Z,57.79
2018-05-23T09:19:49.192Z,59.57
2018-05-23T09:22:17.899Z,61.09
2018-05-23T09:24:47.211Z,61.95
2018-05-23T09:27:15.877Z,60.33
2018-05-23T09:29:44.756Z,60.94
2018-05-23T09:32:13.625Z,60.17
2018-05-23T09:34:42.119Z,61.83
2018-05-23T09:37:10.819Z,60.05
2018-05-23T09:39:39.215Z,58.70
2018-05-23T09:42:07.782Z,58.32
2018-05-23T09:44:36.784Z,57.02
2018-05-23T09:47:05.187Z,58.92
2018-05-23T09:49:33.567Z,58.38
2018-05-23T09:52:01.973Z,59.77
2018-05-23T09:54:30.354Z,58.59
2018-05-23T09:56:58.812Z,56.71
2018-05-23T09:59:27.174Z,58.03
2018-05-23T10:01:55.583Z,55.68
2018-05-23T10:04:23.964Z,53.94
2018-05-23T10:06:52.378Z,54.08
2018-05-23T10:09:20.751Z,53.87
2018-05-23T10:11:49.155Z,53.31
2018-05-23T10:14:17.539Z,56.37
2018-05-23T10:16:45.942Z,54.88
2018-05-23T10:19:14.339Z,56.82
2018-05-23T10:21:42.736Z,57.83
2018-05-23T10:24:11.753Z,59.79
2018-05-23T10:26:40.149Z,60.17
2018-05-23T10:29:08.528Z,60.12
2018-05-23T10:31:36.939Z,60.11
2018-05-23T10:34:05.323Z,60.72
2018-05-23T10:36:33.724Z,58.48
2018-05-23T10:39:02.202Z,60.27
2018-05-23T10:41:30.836Z,61.49
2018-05-23T10:43:59.579Z,62.04
2018-05-23T10:46:28.224Z,63.40
2018-05-23T10:48:57.287Z,62.01
2018-05-23T10:51:25.695Z,62.74
2018-05-23T10:53:54.896Z,60.81
2018-05-23T10:56:23.745Z,61.94
2018-05-23T10:58:52.131Z,61.86
2018-05-23T11:01:20.736Z,62.10
2018-05-23T11:03:49.117Z,60.10
2018-05-23T11:06:17.503Z,58.59
2018-05-23T11:08:45.880Z,60.44
2018-05-23T11:11:14.279Z,59.95
2018-05-23T11:13:42.678Z,57.11
2018-05-23T11:16:11.063Z,56.19
2018-05-23T11:18:39.456Z,55.23
2018-05-23T11:21:07.847Z,54.89
2018-05-23T11:23:36.226Z,49.51
2018-05-23T11:26:04.612Z,43.61
2018-05-23T11:28:33.002Z,39.83
2018-05-23T11:31:01.380Z,34.23
2018-05-23T11:33:29.776Z,32.72
2018-05-23T11:35:58.159Z,34.36
2018-05-23T11:38:26.560Z,33.68
2018-05-23T11:40:54.944Z,31.36
2018-05-23T11:43:23.419Z,30.86
2018-05-23T11:45:52.415Z,28.98
2018-05-23T11:48:22.061Z,27.52
2018-05-23T11:50:50.774Z,26.62
2018-05-23T11:53:19.164Z,25.96
2018-05-23T11:55:47.542Z,26.79
2018-05-23T11:58:15.937Z,28.66
2018-05-23T12:00:44.321Z,33.65
2018-05-23T12:03:12.726Z,34.75
2018-05-23T12:05:41.112Z,35.66
2018-05-23T12:08:09.511Z,34.73
2018-05-23T12:10:37.988Z,33.62
2018-05-23T12:13:06.274Z,33.59
2018-05-23T12:15:34.654Z,33.06
2018-05-23T12:18:03.052Z,32.25
2018-05-23T12:20:31.435Z,33.18
2018-05-23T12:22:59.830Z,32.01
2018-05-23T12:25:28.216Z,31.22
2018-05-23T12:27:56.604Z,30.76
2018-05-23T12:30:24.978Z,27.58
2018-05-23T12:32:53.379Z,27.68
2018-05-23T12:35:21.764Z,28.92
2018-05-23T12:37:50.154Z,29.25
2018-05-23T12:40:18.527Z,29.24
2018-05-23T12:42:46.979Z,28.00
2018-05-23T12:45:15.358Z,30.54
2018-05-23T12:47:44.212Z,29.20
2018-05-23T12:50:13.567Z,30.47
2018-05-23T12:52:42.427Z,28.87
2018-05-23T12:55:11.368Z,30.19
2018-05-23T12:57:39.901Z,29.62
2018-05-23T13:00:08.284Z,30.47
2018-05-23T13:02:36.863Z,31.24
2018-05-23T13:05:05.235Z,31.73
2018-05-23T13:07:33.641Z,29.81
2018-05-23T13:10:02.020Z,28.93
2018-05-23T13:12:30.481Z,28.66
2018-05-23T13:14:58.791Z,27.92
2018-05-23T13:17:27.183Z,29.79
2018-05-23T13:19:55.554Z,31.08
2018-05-23T13:22:23.961Z,29.42
2018-05-23T13:24:52.341Z,30.31
2018-05-23T13:27:20.730Z,28.93
2018-05-23T13:29:49.116Z,29.29
2018-05-23T13:32:17.518Z,33.13
2018-05-23T13:34:45.887Z,34.93
2018-05-23T13:37:14.291Z,33.27
2018-05-23T13:39:42.674Z,31.37
2018-05-23T13:42:11.066Z,32.42
2018-05-23T13:44:39.650Z,31.82
2018-05-23T13:47:08.043Z,33.29
2018-05-23T13:49:37.339Z,35.18
2018-05-23T13:52:05.992Z,36.31
2018-05-23T13:54:34.373Z,36.92
2018-05-23T13:57:02.776Z,38.60
2018-05-23T13:59:31.155Z,39.90
2018-05-23T14:01:59.546Z,41.53
2018-05-23T14:04:27.932Z,42.99
2018-05-23T14:06:56.328Z,42.23
2018-05-23T14:09:24.704Z,41.94
2018-05-23T14:11:53.079Z,44.80
2018-05-23T14:14:21.479Z,44.74
2018-05-23T14:16:49.853Z,44.28
2018-05-23T14:19:18.324Z,43.39
2018-05-23T14:21:46.631Z,40.95
2018-05-23T14:24:15.023Z,39.32
2018-05-23T14:26:43.390Z,40.48
2018-05-23T14:29:11.791Z,42.00
2018-05-23T14:31:40.171Z,42.19
2018-05-23T14:34:08.575Z,41.98
2018-05-23T14:36:36.944Z,43.94
2018-05-23T14:39:06.115Z,43.76
2018-05-23T14:41:34.495Z,43.81
2018-05-23T14:44:02.899Z,44.85
2018-05-23T14:46:31.796Z,44.82
2018-05-23T14:49:00.182Z,44.74
2018-05-23T14:51:28.695Z,42.26
2018-05-23T14:53:57.441Z,43.21
2018-05-23T14:56:26.001Z,43.25
2018-05-23T14:58:54.495Z,40.82
2018-05-23T15:01:22.863Z,41.10
2018-05-23T15:03:51.268Z,42.32
2018-05-23T15:06:19.636Z,41.59
2018-05-23T15:08:48.023Z,42.95
2018-05-23T15:11:16.399Z,42.71
2018-05-23T15:13:44.796Z,46.34
2018-05-23T15:16:13.176Z,45.60
2018-05-23T15:18:41.562Z,46.71
2018-05-23T15:21:09.938Z,46.73
2018-05-23T15:23:38.343Z,48.57
2018-05-23T15:26:06.723Z,45.87
2018-05-23T15:28:35.116Z,46.52
2018-05-23T15:31:03.483Z,47.29
2018-05-23T15:33:31.875Z,48.13
2018-05-23T15:36:00.259Z,49.79
2018-05-23T15:38:28.656Z,50.68
2018-05-23T15:40:57.032Z,49.96
2018-05-23T15:43:25.457Z,51.52
2018-05-23T15:45:53.835Z,52.23
2018-05-23T15:48:23.074Z,52.67
2018-05-23T15:50:51.459Z,53.78
2018-05-23T15:53:20.063Z,54.84
2018-05-23T15:55:48.772Z,55.86
2018-05-23T15:58:17.547Z,57.13
2018-05-23T16:00:45.915Z,58.18
2018-05-23T16:03:14.411Z,58.43
2018-05-23T16:05:43.404Z,59.20
2018-05-23T16:08:11.991Z,60.52
2018-05-23T16:10:40.387Z,59.68
2018-05-23T16:13:09.947Z,62.34
2018-05-23T16:15:38.776Z,62.02
2018-05-23T16:18:07.343Z,61.37
2018-05-23T16:20:35.811Z,63.48
2018-05-23T16:23:04.126Z,65.54
2018-05-23T16:25:32.503Z,67.52
2018-05-23T16:28:00.906Z,61.01
2018-05-23T16:30:29.292Z,66.04
2018-05-23T16:32:57.699Z,67.46
2018-05-23T16:35:26.075Z,64.78
2018-05-23T16:37:54.787Z,62.08
2018-05-23T16:40:23.722Z,61.66
2018-05-23T16:42:53.014Z,61.51
2018-05-23T16:45:22.103Z,63.57
2018-05-23T16:47:50.508Z,60.69
2018-05-23T16:50:20.517Z,58.80
2018-05-23T16:52:49.276Z,58.23
2018-05-23T16:55:18.467Z,57.70
2018-05-23T16:57:46.839Z,57.35
2018-05-23T17:00:15.237Z,56.31
2018-05-23T17:02:43.608Z,51.87
2018-05-23T17:05:12.040Z,54.89
2018-05-23T17:07:41.507Z,60.12
2018-05-23T17:10:10.172Z,61.79
2018-05-23T17:12:38.554Z,63.08
2018-05-23T17:15:07.156Z,63.82
2018-05-23T17:17:35.552Z,63.88
2018-05-23T17:20:03.959Z,64.05
2018-05-23T17:22:32.358Z,64.57
2018-05-23T17:25:01.059Z,64.16
2018-05-23T17:27:30.448Z,64.53
2018-05-23T17:29:58.804Z,64.11
2018-05-23T17:32:27.840Z,64.22
2018-05-23T17:34:56.527Z,63.79
2018-05-23T17:37:25.520Z,64.02
2018-05-23T17:39:54.004Z,63.98
2018-05-23T17:42:22.384Z,64.51
2018-05-23T17:44:50.868Z,64.92
2018-05-23T17:47:19.263Z,64.37
2018-05-23T17:49:49.374Z,63.88
2018-05-23T17:52:18.071Z,64.10
2018-05-23T17:54:46.868Z,64.40
2018-05-23T17:57:15.735Z,64.15
2018-05-23T17:59:44.400Z,64.32
2018-05-23T18:02:13.920Z,63.75
2018-05-23T18:04:42.995Z,63.51
2018-05-23T18:07:11.391Z,63.84
2018-05-23T18:09:40.554Z,63.44
2018-05-23T18:12:09.446Z,63.33
2018-05-23T18:14:38.339Z,63.28
2018-05-23T18:17:06.735Z,62.09
2018-05-23T18:19:36.090Z,63.34
2018-05-23T18:22:04.846Z,61.73
2018-05-23T18:24:33.234Z,62.33
2018-05-23T18:27:01.640Z,61.14
2018-05-23T18:29:30.379Z,61.65
2018-05-23T18:31:59.342Z,61.94
2018-05-23T18:34:27.735Z,62.12
2018-05-23T18:36:56.135Z,61.54
2018-05-23T18:39:25.327Z,61.79
2018-05-23T18:41:54.030Z,61.87
2018-05-23T18:44:22.834Z,62.54
2018-05-23T18:46:51.226Z,62.90
2018-05-23T18:49:20.161Z,63.52
2018-05-23T18:51:49.207Z,64.31
2018-05-23T18:54:18.747Z,64.76
2018-05-23T18:56:47.184Z,65.00
2018-05-23T18:59:15.962Z,65.89
2018-05-23T19:01:44.627Z,65.39
2018-05-23T19:04:13.139Z,65.83
2018-05-23T19:06:41.526Z,65.30
2018-05-23T19:09:09.906Z,65.54
2018-05-23T19:11:38.301Z,65.49
2018-05-23T19:14:06.691Z,64.72
2018-05-23T19:16:35.079Z,64.89
2018-05-23T19:19:03.455Z,65.52
2018-05-23T19:21:31.867Z,65.81
2018-05-23T19:24:00.245Z,66.88
2018-05-23T19:26:28.663Z,69.20
2018-05-23T19:28:57.155Z,69.79
2018-05-23T19:31:25.598Z,69.96
2018-05-23T19:33:54.100Z,70.45
2018-05-23T19:36:22.479Z,71.34
2018-05-23T19:38:50.880Z,72.10
2018-05-23T19:41:19.485Z,72.79
2018-05-23T19:43:47.943Z,71.60
2018-05-23T19:46:16.320Z,71.77
2018-05-23T19:48:44.731Z,71.99
2018-05-23T19:51:13.229Z,72.61
2018-05-23T19:53:42.647Z,71.50
2018-05-23T19:56:11.476Z,72.39
2018-05-23T19:58:40.921Z,72.80
2018-05-23T20:01:09.646Z,73.09
2018-05-23T20:03:38.239Z,73.25
2018-05-23T20:06:08.398Z,73.62
2018-05-23T20:08:37.251Z,74.18
2018-05-23T20:11:07.311Z,74.86
2018-05-23T20:13:36.267Z,75.47
2018-05-23T20:16:04.639Z,75.66
2018-05-23T20:18:33.043Z,75.98
2018-05-23T20:21:02.071Z,76.06
2018-05-23T20:23:30.487Z,76.55
2018-05-23T20:25:59.100Z,75.09
2018-05-23T20:28:27.674Z,75.72
2018-05-23T20:30:56.051Z,76.07
2018-05-23T20:33:24.447Z,76.25
2018-05-23T20:35:53.795Z,76.29
2018-05-23T20:38:22.616Z,75.85
2018-05-23T20:40:51.669Z,75.84
2018-05-23T20:43:20.583Z,75.85
2018-05-23T20:45:48.959Z,75.33
2018-05-23T20:48:17.368Z,75.30
2018-05-23T20:50:46.840Z,75.82
2018-05-23T20:53:15.440Z,76.42
2018-05-23T20:55:43.827Z,76.82
2018-05-23T20:58:12.211Z,77.00
2018-05-23T21:00:40.928Z,77.60
2018-05-23T21:03:09.837Z,77.79
2018-05-23T21:05:38.812Z,77.92
2018-05-23T21:08:08.009Z,77.57
2018-05-23T21:10:36.772Z,77.13
2018-05-23T21:13:05.971Z,77.11
2018-05-23T21:15:34.372Z,77.26
2018-05-23T21:18:02.915Z,76.90
2018-05-23T21:20:31.320Z,77.53
2018-05-23T21:23:00.011Z,77.99
2018-05-23T21:25:28.890Z,78.32
2018-05-23T21:27:57.343Z,78.19
2018-05-23T21:30:25.855Z,77.93
2018-05-23T21:32:55.032Z,77.95
2018-05-23T21:35:23.819Z,77.92
2018-05-23T21:37:52.551Z,78.18
2018-05-23T21:40:21.310Z,78.05
2018-05-23T21:42:50.164Z,77.86
2018-05-23T21:45:18.804Z,77.67
2018-05-23T21:47:48.232Z,76.96
2018-05-23T21:50:17.039Z,76.53
2018-05-23T21:52:45.763Z,75.30
2018-05-23T21:55:14.176Z,75.45
2018-05-23T21:57:43.559Z,76.27
2018-05-23T22:00:11.959Z,76.39
2018-05-23T22:02:40.944Z,76.41
2018-05-23T22:05:09.723Z,76.79
2018-05-23T22:07:38.117Z,76.82
2018-05-23T22:10:06.515Z,76.20
2018-05-23T22:12:34.895Z,76.05
2018-05-23T22:15:03.299Z,75.98
2018-05-23T22:17:31.679Z,75.52
2018-05-23T22:20:00.079Z,75.19
2018-05-23T22:22:28.459Z,75.06
2018-05-23T22:24:56.855Z,75.69
2018-05-23T22:27:25.234Z,75.66
2018-05-23T22:29:53.631Z,74.92
2018-05-23T22:32:22.015Z,74.56
2018-05-23T22:34:50.410Z,74.09
2018-05-23T22:37:18.794Z,74.38
2018-05-23T22:39:47.204Z,74.59
2018-05-23T22:42:15.579Z,75.25
2018-05-23T22:44:43.983Z,75.34
2018-05-23T22:47:12.375Z,74.92
2018-05-23T22:49:40.787Z,75.03
2018-05-23T22:52:09.187Z,75.73
2018-05-23T22:54:38.259Z,76.59
2018-05-23T22:57:06.651Z,76.38
2018-05-23T22:59:35.303Z,76.51
2018-05-23T23:02:04.204Z,76.58
2018-05-23T23:04:32.787Z,76.71
2018-05-23T23:07:01.260Z,76.34
2018-05-23T23:09:29.676Z,77.09
2018-05-23T23:11:58.062Z,76.61
2018-05-23T23:14:27.179Z,76.41
2018-05-23T23:16:55.700Z,76.23
2018-05-23T23:19:24.107Z,76.89
2018-05-23T23:21:52.490Z,77.36
2018-05-23T23:24:20.895Z,76.75
2018-05-23T23:26:49.282Z,76.91
2018-05-23T23:29:17.683Z,76.93
2018-05-23T23:31:47.067Z,76.85
2018-05-23T23:34:15.480Z,77.49
2018-05-23T23:36:43.862Z,77.50
2018-05-23T23:39:12.263Z,77.93
2018-05-23T23:41:40.648Z,77.55
2018-05-23T23:44:09.039Z,77.76
2018-05-23T23:46:37.438Z,77.37
2018-05-23T23:49:05.847Z,77.47
2018-05-23T23:51:34.242Z,77.71
2018-05-23T23:54:02.635Z,77.81
2018-05-23T23:56:31.048Z,77.96
2018-05-23T23:58:59.798Z,77.32
